Time;durP1;ratioP1;P1;durP2;ratioP2;P2;SDS_P1;SDS_P2;PMS_P1;PMS_P2;Temp;Humidity;BMP_temperature;BMP_pressure;BME280_temperature;BME280_humidity;BME280_pressure;Samples;Min_cycle;Max_cycle;Signal;HPM_P1;HPM_P2
2023/06/25 00:01:00;;;;;;;10.75;6.57;;;;;;;-142.75;100.00;76402.97;5048690;28;20053;-62
2023/06/25 00:03:25;;;;;;;13.48;7.30;;;;;;;-142.75;100.00;76406.91;5048441;28;20527;-62
2023/06/25 00:05:51;;;;;;;11.30;6.32;;;;;;;-142.75;100.00;76401.00;5048718;28;20024;-62
2023/06/25 00:08:16;;;;;;;12.15;5.80;;;;;;;-142.75;100.00;76397.06;5049159;28;21615;-62
2023/06/25 00:10:42;;;;;;;12.05;6.15;;;;;;;-142.75;100.00;76393.13;5048717;28;20397;-63
2023/06/25 00:13:07;;;;;;;12.32;6.78;;;;;;;-142.75;100.00;76389.19;5048272;28;20017;-63
2023/06/25 00:15:33;;;;;;;11.73;6.85;;;;;;;-142.75;100.00;76387.22;5048492;28;20013;-62
2023/06/25 00:17:58;;;;;;;10.65;6.32;;;;;;;-142.75;100.00;76385.25;5048467;28;20108;-62
2023/06/25 00:20:28;;;;;;;10.05;6.40;;;;;;;-142.75;100.00;76381.31;5048239;28;20024;-62
2023/06/25 00:22:53;;;;;;;13.05;7.10;;;;;;;-142.75;100.00;76379.34;5048282;28;20484;-62
2023/06/25 00:25:19;;;;;;;13.30;7.00;;;;;;;-142.75;100.00;76373.44;5048192;28;20029;-62
2023/06/25 00:27:47;;;;;;;13.43;7.68;;;;;;;-142.75;100.00;76373.44;5048531;28;20156;-62
2023/06/25 00:30:14;;;;;;;11.32;7.10;;;;;;;-142.75;100.00;76373.44;5048605;28;20036;-62
2023/06/25 00:32:40;;;;;;;12.25;6.90;;;;;;;-142.75;100.00;76375.41;5047996;28;20486;-61
2023/06/25 00:35:06;;;;;;;12.75;6.97;;;;;;;-142.75;100.00;76379.34;5048310;28;20033;-62
2023/06/25 00:37:35;;;;;;;11.20;6.57;;;;;;;-142.75;100.00;76377.38;5048198;28;20527;-62
2023/06/25 00:40:01;;;;;;;10.48;5.90;;;;;;;-142.75;100.00;76377.38;5048003;28;20033;-62
2023/06/25 00:42:26;;;;;;;12.45;6.82;;;;;;;-142.75;100.00;76379.34;5048126;28;20074;-62
2023/06/25 00:44:51;;;;;;;13.52;7.07;;;;;;;-142.75;100.00;76369.50;5047871;28;20106;-62
2023/06/25 00:47:18;;;;;;;12.23;6.68;;;;;;;-142.75;100.00;76365.56;5047972;28;20170;-62
2023/06/25 00:49:44;;;;;;;12.05;6.40;;;;;;;-142.75;100.00;76359.66;5048088;28;20036;-62
2023/06/25 00:52:12;;;;;;;11.35;6.68;;;;;;;-142.75;100.00;76357.69;5047771;28;20503;-62
2023/06/25 00:54:38;;;;;;;11.50;6.63;;;;;;;-142.75;100.00;76351.81;5047610;28;20028;-62
2023/06/25 00:57:07;;;;;;;13.73;7.55;;;;;;;-142.75;100.00;76332.13;5047765;28;20056;-62
2023/06/25 00:59:39;;;;;;;14.23;8.30;;;;;;;-142.75;100.00;76310.47;5047762;28;20102;-62
2023/06/25 01:02:11;;;;;;;15.60;8.77;;;;;;;-142.75;100.00;76310.47;5046785;28;20025;-62
2023/06/25 01:04:46;;;;;;;15.88;8.45;;;;;;;-142.75;100.00;76302.59;5047498;28;20428;-62
2023/06/25 01:07:17;;;;;;;14.90;8.13;;;;;;;-142.75;100.00;76314.41;5047536;28;20400;-60
2023/06/25 01:09:54;;;;;;;13.38;7.93;;;;;;;-142.75;100.00;76302.59;5047946;28;20556;-62
2023/06/25 01:12:19;;;;;;;11.73;7.38;;;;;;;-142.75;100.00;76310.47;5045988;28;20119;-62
2023/06/25 01:14:48;;;;;;;13.60;7.45;;;;;;;-142.75;100.00;76312.44;5047790;28;20104;-62
2023/06/25 01:17:14;;;;;;;16.65;7.85;;;;;;;-142.75;100.00;76312.44;5047553;28;20300;-62
2023/06/25 01:19:40;;;;;;;12.10;7.32;;;;;;;-142.75;100.00;76308.50;5047107;28;20021;-62
2023/06/25 01:22:06;;;;;;;17.13;8.48;;;;;;;-142.75;100.00;76300.63;5047052;28;20061;-61
2023/06/25 01:24:35;;;;;;;14.68;8.27;;;;;;;-142.75;100.00;76294.72;5047137;28;20089;-62
2023/06/25 01:27:04;;;;;;;15.13;7.50;;;;;;;-142.75;100.00;76290.78;5047131;28;20400;-62
2023/06/25 01:29:29;;;;;;;11.63;7.22;;;;;;;-142.75;100.00;76298.66;5047099;28;20024;-62
2023/06/25 01:31:54;;;;;;;10.48;6.85;;;;;;;-142.75;100.00;76298.66;5046559;28;20077;-61
2023/06/25 01:34:21;;;;;;;14.52;7.18;;;;;;;-142.75;100.00;76300.63;5046882;28;20056;-61
2023/06/25 01:36:49;;;;;;;16.67;8.02;;;;;;;-142.75;100.00;76298.66;5046889;28;20116;-62
2023/06/25 01:39:16;;;;;;;13.10;7.32;;;;;;;-142.75;100.00;76294.72;5046962;28;20029;-62
2023/06/25 01:41:43;;;;;;;16.15;8.93;;;;;;;-142.75;100.00;76259.28;5046817;28;20029;-61
2023/06/25 01:44:14;;;;;;;15.68;8.55;;;;;;;-142.75;100.00;76253.38;5046570;28;20025;-61
2023/06/25 01:46:39;;;;;;;13.00;7.95;;;;;;;-142.75;100.00;76259.28;5046715;28;20033;-62
2023/06/25 01:49:05;;;;;;;17.58;8.50;;;;;;;-142.75;100.00;76255.34;5046665;28;20096;-61
2023/06/25 01:51:31;;;;;;;11.93;7.45;;;;;;;-142.75;100.00;76251.41;5046806;28;20061;-62
2023/06/25 01:53:57;;;;;;;14.82;8.68;;;;;;;-142.75;100.00;76243.53;5046431;28;20025;-60
2023/06/25 01:56:23;;;;;;;13.77;7.18;;;;;;;-142.75;100.00;76247.47;5046749;28;20512;-61
2023/06/25 01:58:52;;;;;;;11.15;7.32;;;;;;;-142.75;100.00;76251.41;5046265;28;20029;-60
2023/06/25 02:01:18;;;;;;;15.80;7.80;;;;;;;-142.75;100.00;76247.47;5046373;28;20032;-63
2023/06/25 02:03:43;;;;;;;14.63;8.65;;;;;;;-142.75;100.00;76245.50;5046417;28;20397;-62
2023/06/25 02:06:08;;;;;;;12.48;7.38;;;;;;;-142.75;100.00;76239.59;5046417;28;20048;-62
2023/06/25 02:08:33;;;;;;;12.20;7.68;;;;;;;-142.75;100.00;76239.59;5046899;28;20488;-62
2023/06/25 02:10:59;;;;;;;16.85;7.63;;;;;;;-142.75;100.00;76239.59;5066184;28;20047;-62
2023/06/25 02:13:24;;;;;;;12.40;7.30;;;;;;;-142.75;100.00;76239.59;5065712;28;20107;-62
2023/06/25 02:15:49;;;;;;;15.10;8.50;;;;;;;-142.75;100.00;76235.66;5065532;28;20024;-59
2023/06/25 02:18:15;;;;;;;13.95;8.05;;;;;;;-142.75;100.00;76231.72;5066374;28;20029;-62
2023/06/25 02:20:40;;;;;;;14.55;9.35;;;;;;;-142.75;100.00;76235.66;5066002;28;20016;-60
2023/06/25 02:23:06;;;;;;;15.52;8.73;;;;;;;-142.75;100.00;76235.66;5066127;28;20103;-62
2023/06/25 02:25:31;;;;;;;15.50;10.00;;;;;;;-142.75;100.00;76231.72;5066330;28;20052;-62
2023/06/25 02:27:56;;;;;;;15.85;9.48;;;;;;;-142.75;100.00;76231.72;5066243;28;20560;-62
2023/06/25 02:30:21;;;;;;;17.65;9.13;;;;;;;-142.75;100.00;76227.78;5065944;28;20396;-62
2023/06/25 02:32:47;;;;;;;16.90;9.40;;;;;;;-142.75;100.00;76233.69;5065589;28;20491;-62
2023/06/25 02:35:12;;;;;;;17.08;9.40;;;;;;;-142.75;100.00;76239.59;5066191;28;20085;-61
2023/06/25 02:37:37;;;;;;;15.45;9.35;;;;;;;-142.75;100.00;76239.59;5065991;28;20028;-61
2023/06/25 02:40:03;;;;;;;15.60;9.40;;;;;;;-142.75;100.00;76235.66;5064405;28;20028;-62
2023/06/25 02:42:29;;;;;;;11.27;7.30;;;;;;;-142.75;100.00;76239.59;5065953;28;20385;-62
2023/06/25 02:44:54;;;;;;;16.77;8.63;;;;;;;-142.75;100.00;76245.50;5065879;28;20116;-62
2023/06/25 02:47:19;;;;;;;16.60;9.32;;;;;;;-142.75;100.00;76251.41;5065797;28;20035;-61
2023/06/25 02:49:45;;;;;;;13.07;8.70;;;;;;;-142.75;100.00;76243.53;5066137;28;20021;-62
2023/06/25 02:52:10;;;;;;;16.40;10.10;;;;;;;-142.75;100.00;76235.66;5065945;28;20051;-59
2023/06/25 02:54:35;;;;;;;17.95;9.20;;;;;;;-142.75;100.00;76227.78;5065928;28;20128;-62
2023/06/25 02:57:01;;;;;;;18.80;10.93;;;;;;;-142.75;100.00;76223.84;5065942;28;20016;-62
2023/06/25 02:59:26;;;;;;;20.00;9.63;;;;;;;-142.75;100.00;76219.91;5065825;28;20495;-62
2023/06/25 03:01:51;;;;;;;17.20;11.07;;;;;;;-142.75;100.00;76210.06;5065640;28;20067;-62
2023/06/25 03:04:17;;;;;;;17.08;10.63;;;;;;;-142.75;100.00;76200.25;5065820;28;20119;-62
2023/06/25 03:06:42;;;;;;;15.43;9.60;;;;;;;-142.75;100.00;76204.16;5064747;28;20091;-62
2023/06/25 03:09:08;;;;;;;14.38;8.80;;;;;;;-142.75;100.00;76206.13;5065747;28;20040;-61
2023/06/25 03:11:33;;;;;;;18.02;9.50;;;;;;;-142.75;100.00;76219.91;5065915;28;20496;-62
2023/06/25 03:14:00;;;;;;;14.18;8.70;;;;;;;-142.75;100.00;76229.75;5065522;28;20036;-61
2023/06/25 03:16:25;;;;;;;11.88;7.93;;;;;;;-142.75;100.00;76239.59;5065761;28;20476;-61
2023/06/25 03:18:51;;;;;;;13.45;9.05;;;;;;;-142.75;100.00;76245.50;5056036;28;20158;-61
2023/06/25 03:21:17;;;;;;;14.57;8.00;;;;;;;-142.75;100.00;76249.44;5045869;28;20028;-61
2023/06/25 03:23:42;;;;;;;16.70;9.60;;;;;;;-142.75;100.00;76243.53;5045407;28;20102;-61
2023/06/25 03:26:08;;;;;;;15.88;9.20;;;;;;;-142.75;100.00;76247.47;5047821;28;20032;-62
2023/06/25 03:28:33;;;;;;;15.38;9.82;;;;;;;-142.75;100.00;76235.66;5049609;28;20036;-62
2023/06/25 03:30:58;;;;;;;16.63;9.82;;;;;;;-142.75;100.00;76231.72;5048913;28;20477;-61
2023/06/25 03:33:24;;;;;;;18.38;10.98;;;;;;;-142.75;100.00;76245.50;5049432;28;20035;-61
2023/06/25 03:35:49;;;;;;;20.10;11.80;;;;;;;-142.75;100.00;76243.53;5049148;28;20039;-62
2023/06/25 03:38:15;;;;;;;17.80;10.93;;;;;;;-142.75;100.00;76247.47;5049473;28;20108;-61
2023/06/25 03:40:40;;;;;;;22.10;10.38;;;;;;;-142.75;100.00;76247.47;5048999;28;20464;-59
2023/06/25 03:43:05;;;;;;;19.10;11.68;;;;;;;-142.75;100.00;76241.56;5049017;28;20033;-62
2023/06/25 03:45:31;;;;;;;23.13;11.73;;;;;;;-142.75;100.00;76235.66;5048917;28;20054;-62
2023/06/25 03:47:56;;;;;;;19.25;11.55;;;;;;;-142.75;100.00;76231.72;5048810;28;20053;-61
2023/06/25 03:50:21;;;;;;;19.00;11.70;;;;;;;-142.75;100.00;76217.94;5049156;28;20504;-61
2023/06/25 03:52:47;;;;;;;20.55;11.55;;;;;;;-142.75;100.00;76215.97;5048859;28;20021;-62
2023/06/25 03:55:12;;;;;;;20.15;11.45;;;;;;;-142.75;100.00;76223.84;5049099;28;20020;-62
2023/06/25 03:57:37;;;;;;;19.98;11.13;;;;;;;-142.75;100.00;76229.75;5048812;28;20479;-61
2023/06/25 04:00:04;;;;;;;19.23;11.20;;;;;;;-142.75;100.00;76227.78;5048850;28;20451;-62
2023/06/25 04:02:29;;;;;;;21.02;11.38;;;;;;;-142.75;100.00;76231.72;5048848;28;20032;-62
2023/06/25 04:04:55;;;;;;;22.05;12.25;;;;;;;-142.75;100.00;76231.72;5048442;28;20073;-62
2023/06/25 04:07:20;;;;;;;20.48;12.00;;;;;;;-142.75;100.00;76239.59;5048733;28;20695;-61
2023/06/25 04:09:46;;;;;;;22.83;13.13;;;;;;;-142.75;100.00;76235.66;5048810;28;20067;-61
2023/06/25 04:12:11;;;;;;;23.02;12.38;;;;;;;-142.75;100.00;76227.78;5048433;28;20442;-61
2023/06/25 04:14:36;;;;;;;23.38;12.70;;;;;;;-142.75;100.00;76227.78;5047146;28;20187;-61
2023/06/25 04:17:02;;;;;;;23.63;12.10;;;;;;;-142.75;100.00;76225.81;5048451;28;20091;-61
2023/06/25 04:19:29;;;;;;;18.30;10.85;;;;;;;-142.75;100.00;76225.81;5048377;28;20500;-60
2023/06/25 04:21:54;;;;;;;21.80;12.27;;;;;;;-142.75;100.00;76243.53;5048318;28;20033;-61
2023/06/25 04:24:19;;;;;;;20.23;11.15;;;;;;;-142.75;100.00;76237.63;5048195;28;20076;-60
2023/06/25 04:26:45;;;;;;;21.10;11.15;;;;;;;-142.75;100.00;76227.78;5048482;28;20048;-62
2023/06/25 04:29:10;;;;;;;19.23;12.15;;;;;;;-142.75;100.00;76225.81;5048028;28;20025;-61
2023/06/25 04:31:35;;;;;;;22.23;12.40;;;;;;;-142.75;100.00;76227.78;5048468;28;20029;-61
2023/06/25 04:34:01;;;;;;;22.40;11.98;;;;;;;-142.75;100.00;76229.75;5048639;28;20395;-62
2023/06/25 04:36:26;;;;;;;20.83;11.98;;;;;;;-142.75;100.00;76221.88;5048047;28;20045;-61
2023/06/25 04:38:52;;;;;;;23.13;12.18;;;;;;;-142.75;100.00;76221.88;5047576;28;20020;-61
2023/06/25 04:41:17;;;;;;;21.15;11.63;;;;;;;-142.75;100.00;76214.00;5047999;28;20029;-62
2023/06/25 04:43:42;;;;;;;20.55;11.27;;;;;;;-142.75;100.00;76212.03;5047635;28;20029;-63
2023/06/25 04:46:08;;;;;;;23.45;11.85;;;;;;;-142.75;100.00;76221.88;5047840;28;20021;-62
2023/06/25 04:48:33;;;;;;;19.10;11.20;;;;;;;-142.75;100.00;76219.91;5047744;28;20138;-62
2023/06/25 04:50:58;;;;;;;23.08;12.50;;;;;;;-142.75;100.00;76215.97;5047777;28;20033;-62
2023/06/25 04:53:24;;;;;;;24.52;12.00;;;;;;;-142.75;100.00;76210.06;5046337;28;20060;-61
2023/06/25 04:55:49;;;;;;;20.10;12.00;;;;;;;-142.75;100.00;76198.28;5047841;28;20017;-62
2023/06/25 04:58:14;;;;;;;19.38;11.90;;;;;;;-142.75;100.00;76192.38;5047920;28;20021;-62
2023/06/25 05:00:40;;;;;;;23.73;13.02;;;;;;;-142.75;100.00;76184.50;5047522;28;20093;-62
2023/06/25 05:03:05;;;;;;;20.90;12.00;;;;;;;-142.75;100.00;76182.53;5047407;28;20067;-61
2023/06/25 05:05:30;;;;;;;20.95;11.80;;;;;;;-142.75;100.00;76190.41;5047646;28;20432;-63
2023/06/25 05:07:56;;;;;;;21.90;12.55;;;;;;;-142.75;100.00;76176.63;5047810;28;20033;-63
2023/06/25 05:10:21;;;;;;;18.70;11.45;;;;;;;-142.75;100.00;76164.81;5044906;28;20033;-61
2023/06/25 05:12:47;;;;;;;19.60;12.27;;;;;;;-142.75;100.00;76156.94;5046110;28;20033;-61
2023/06/25 05:15:12;;;;;;;20.13;11.73;;;;;;;-142.75;100.00;76139.22;5046835;28;20016;-62
2023/06/25 05:17:37;;;;;;;21.27;13.18;;;;;;;-142.75;100.00;76123.47;5047292;28;20108;-60
2023/06/25 05:20:04;;;;;;;21.50;13.43;;;;;;;-142.75;100.00;76101.81;5047088;28;20549;-62
2023/06/25 05:22:30;;;;;;;20.83;12.27;;;;;;;-142.75;100.00;76101.81;5047244;28;20025;-62
2023/06/25 05:24:55;;;;;;;24.95;12.80;;;;;;;-142.75;100.00;76088.03;5047028;28;20534;-60
2023/06/25 05:27:20;;;;;;;24.90;12.05;;;;;;;-142.75;100.00;76090.00;5047302;28;20086;-59
2023/06/25 05:29:46;;;;;;;26.75;13.10;;;;;;;-142.75;100.00;76068.38;5047232;28;20053;-60
2023/06/25 05:32:11;;;;;;;24.83;12.90;;;;;;;-142.75;100.00;76076.22;5047135;28;20554;-61
2023/06/25 05:34:36;;;;;;;18.00;11.13;;;;;;;-142.75;100.00;76101.81;5046958;28;20044;-62
2023/06/25 05:37:02;;;;;;;19.00;11.52;;;;;;;-142.75;100.00;76101.81;5046907;28;20025;-62
2023/06/25 05:39:29;;;;;;;15.98;10.85;;;;;;;-142.75;100.00;76093.94;5047016;28;20120;-62
2023/06/25 05:41:58;;;;;;;17.17;11.45;;;;;;;-142.75;100.00;76042.78;5046935;28;20021;-62
2023/06/25 05:44:25;;;;;;;18.65;11.65;;;;;;;-142.75;100.00;76034.91;5046803;28;20389;-62
2023/06/25 05:46:50;;;;;;;19.58;11.45;;;;;;;-142.75;100.00;76048.69;5046898;28;20056;-61
2023/06/25 05:49:15;;;;;;;19.67;12.45;;;;;;;-142.75;100.00;76066.41;5046639;28;20059;-63
2023/06/25 05:51:41;;;;;;;20.75;11.25;;;;;;;-142.75;100.00;76064.44;5057461;28;20032;-62
2023/06/25 05:54:06;;;;;;;20.65;11.10;;;;;;;-142.75;100.00;76082.13;5066414;28;20026;-61
2023/06/25 05:56:31;;;;;;;25.80;11.93;;;;;;;-142.75;100.00;76072.31;5066829;28;20036;-62
2023/06/25 05:58:57;;;;;;;17.42;11.18;;;;;;;-142.75;100.00;76060.50;5047193;28;20119;-59
2023/06/25 06:01:23;;;;;;;18.05;10.90;;;;;;;-142.75;100.00;76050.66;5046608;28;20064;-62
2023/06/25 06:03:48;;;;;;;18.70;11.80;;;;;;;-142.75;100.00;76036.88;5046148;28;20025;-62
2023/06/25 06:06:13;;;;;;;19.02;11.68;;;;;;;-142.75;100.00;76027.03;5046704;28;20611;-59
2023/06/25 06:08:39;;;;;;;19.80;11.38;;;;;;;-142.75;100.00;76032.94;5046405;28;20021;-62
2023/06/25 06:11:04;;;;;;;18.45;10.75;;;;;;;-142.75;100.00;76032.94;5046226;28;20107;-63
2023/06/25 06:13:29;;;;;;;19.40;9.90;;;;;;;-142.75;100.00;76019.16;5046166;28;20025;-61
2023/06/25 06:15:55;;;;;;;16.83;11.00;;;;;;;-142.75;100.00;76019.16;5046118;28;20046;-60
2023/06/25 06:18:20;;;;;;;15.93;9.93;;;;;;;-142.75;100.00;76023.09;5046323;28;20029;-60
2023/06/25 06:20:46;;;;;;;15.98;9.35;;;;;;;-142.75;100.00;76027.03;5046333;28;20032;-60
2023/06/25 06:23:11;;;;;;;19.27;9.73;;;;;;;-142.75;100.00;76023.09;5045889;28;20036;-61
2023/06/25 06:25:36;;;;;;;19.60;10.32;;;;;;;-142.75;100.00;76019.16;5046322;28;20021;-61
2023/06/25 06:28:02;;;;;;;16.75;9.82;;;;;;;-142.75;100.00;76003.41;5045907;28;20021;-62
2023/06/25 06:30:27;;;;;;;15.90;9.18;;;;;;;-142.75;100.00;76011.28;5046082;28;20485;-62
2023/06/25 06:32:53;;;;;;;17.50;10.13;;;;;;;-142.75;100.00;75993.56;5045856;28;20476;-61
2023/06/25 06:35:18;;;;;;;15.27;9.88;;;;;;;-142.75;100.00;75971.91;5046256;28;20099;-62
2023/06/25 06:37:44;;;;;;;16.65;9.63;;;;;;;-142.75;100.00;75964.03;5046507;28;20037;-62
2023/06/25 06:40:10;;;;;;;16.00;9.25;;;;;;;-142.75;100.00;75962.09;5045845;28;20107;-62
2023/06/25 06:42:35;;;;;;;16.65;9.23;;;;;;;-142.75;100.00;75956.19;5045953;28;20112;-61
2023/06/25 06:45:02;;;;;;;16.08;10.05;;;;;;;-142.75;100.00;75930.59;5045377;28;20033;-62
2023/06/25 06:47:27;;;;;;;15.35;9.18;;;;;;;-142.75;100.00;75908.94;5044799;28;20033;-62
2023/06/25 06:49:52;;;;;;;16.52;9.40;;;;;;;-142.75;100.00;75897.13;5045674;28;20025;-61
2023/06/25 06:52:26;;;;;;;16.92;9.45;;;;;;;-142.75;100.00;75885.31;5043674;28;20031;-61
2023/06/25 06:54:51;;;;;;;23.13;9.82;;;;;;;-142.75;100.00;75879.41;5043539;28;20088;-61
2023/06/25 06:57:17;;;;;;;13.52;8.63;;;;;;;-142.75;100.00;75865.63;5044801;28;20116;-59
2023/06/25 06:59:45;;;;;;;14.02;8.50;;;;;;;-142.75;100.00;75867.59;5039972;28;20021;-62
2023/06/25 07:02:11;;;;;;;13.13;8.18;;;;;;;-142.75;100.00;75855.81;5042175;28;20033;-62
2023/06/25 07:04:36;;;;;;;11.80;7.18;;;;;;;-142.75;100.00;75847.94;5046602;28;20565;-61
2023/06/25 07:07:02;;;;;;;11.75;7.35;;;;;;;-142.75;100.00;75845.97;5048222;28;20107;-62
2023/06/25 07:09:27;;;;;;;14.80;8.27;;;;;;;-142.75;100.00;75820.38;5048671;28;20032;-62
2023/06/25 07:11:53;;;;;;;14.52;8.13;;;;;;;-142.75;100.00;75810.53;5047280;28;20028;-62
2023/06/25 07:14:18;;;;;;;12.70;7.25;;;;;;;-142.75;100.00;75804.63;5050155;28;20507;-63
2023/06/25 07:16:44;;;;;;;14.43;8.15;;;;;;;-142.75;100.00;75798.72;5045605;28;20030;-61
2023/06/25 07:19:10;;;;;;;18.23;9.40;;;;;;;-142.75;100.00;75788.88;5046369;28;20031;-61
2023/06/25 07:21:35;;;;;;;11.65;7.15;;;;;;;-142.75;100.00;75773.13;5047482;28;20029;-61
2023/06/25 07:24:00;;;;;;;14.80;8.35;;;;;;;-142.75;100.00;75755.44;5047768;28;20417;-59
2023/06/25 07:26:27;;;;;;;12.05;7.20;;;;;;;-142.75;100.00;75751.50;5048349;28;20055;-61
2023/06/25 07:28:52;;;;;;;10.23;6.63;;;;;;;-142.75;100.00;75747.56;5048938;28;20021;-62
2023/06/25 07:31:18;;;;;;;12.32;6.70;;;;;;;-142.75;100.00;75721.97;5049340;28;20513;-59
2023/06/25 07:33:43;;;;;;;11.95;6.95;;;;;;;-142.75;100.00;75729.84;5049172;28;20025;-59
2023/06/25 07:36:08;;;;;;;12.70;7.35;;;;;;;-142.75;100.00;75729.84;5047945;28;20103;-61
2023/06/25 07:38:34;;;;;;;11.13;6.50;;;;;;;-142.75;100.00;75716.06;5048745;28;20024;-60
2023/06/25 07:40:59;;;;;;;10.60;5.68;;;;;;;-142.75;100.00;75688.50;5047247;28;20021;-62
2023/06/25 07:43:24;;;;;;;13.68;6.88;;;;;;;-142.75;100.00;75672.78;5048642;28;20107;-60
2023/06/25 07:45:50;;;;;;;12.93;6.88;;;;;;;-142.75;100.00;75645.22;5048675;28;20049;-60
2023/06/25 07:48:15;;;;;;;10.10;6.15;;;;;;;-142.75;100.00;75639.31;5046032;28;20040;-62
2023/06/25 07:50:40;;;;;;;10.88;6.70;;;;;;;-142.75;100.00;75619.63;5048202;28;20043;-63
2023/06/25 07:53:06;;;;;;;13.23;6.68;;;;;;;-142.75;100.00;75605.84;5047237;28;20025;-61
2023/06/25 07:55:38;;;;;;;11.48;6.38;;;;;;;-142.75;100.00;75594.06;5046540;28;20500;-59
2023/06/25 07:58:04;;;;;;;15.45;6.57;;;;;;;-142.75;97.35;75582.25;5045144;28;20027;-61
2023/06/25 08:00:30;;;;;;;10.60;5.75;;;;;;;-142.75;94.53;75586.19;5044552;28;20408;-60
2023/06/25 08:02:55;;;;;;;9.40;5.72;;;;;;;-142.75;94.80;75578.31;5046725;28;20025;-62
2023/06/25 08:05:20;;;;;;;10.90;6.43;;;;;;;-142.75;96.17;75584.22;5046640;28;20031;-60
2023/06/25 08:07:46;;;;;;;12.48;5.03;;;;;;;-142.75;97.40;75554.69;5048379;28;20111;-60
2023/06/25 08:10:11;;;;;;;13.63;5.93;;;;;;;-142.75;93.49;75544.84;5046477;28;20079;-61
2023/06/25 08:12:37;;;;;;;12.48;6.00;;;;;;;-142.75;91.21;75544.84;5048152;28;20048;-61
2023/06/25 08:15:03;;;;;;;11.80;5.63;;;;;;;-142.75;91.13;75546.81;5047897;28;20552;-61
2023/06/25 08:17:28;;;;;;;7.28;4.75;;;;;;;-142.75;97.27;75523.19;5048522;28;20021;-62
2023/06/25 08:19:54;;;;;;;9.25;4.88;;;;;;;-142.75;88.79;75513.38;5047990;28;20024;-62
2023/06/25 08:22:19;;;;;;;8.93;5.70;;;;;;;-142.75;89.38;75485.81;5047634;28;20119;-61
2023/06/25 08:24:44;;;;;;;8.52;4.57;;;;;;;-142.75;91.41;75460.22;5047798;28;20036;-61
2023/06/25 08:27:09;;;;;;;7.72;4.22;;;;;;;-142.75;84.50;75475.97;5045726;28;20025;-62
2023/06/25 08:29:35;;;;;;;10.95;4.50;;;;;;;-142.75;86.09;75460.22;5045195;28;20369;-63
2023/06/25 08:32:00;;;;;;;7.60;4.53;;;;;;;-142.75;87.22;75446.44;5056278;28;20028;-60
2023/06/25 08:34:26;;;;;;;7.20;3.92;;;;;;;-142.75;91.84;75418.91;5060421;28;20027;-61
2023/06/25 08:36:52;;;;;;;7.20;3.70;;;;;;;-142.75;86.20;75401.19;5067901;28;20103;-62
2023/06/25 08:39:17;;;;;;;7.40;3.60;;;;;;;-142.75;79.05;75411.03;5053004;28;20395;-61
2023/06/25 08:41:42;;;;;;;6.22;3.30;;;;;;;-142.75;79.08;75381.50;5048174;28;20028;-62
2023/06/25 08:44:08;;;;;;;6.40;3.60;;;;;;;-142.75;77.92;75373.63;5047680;28;20021;-61
2023/06/25 08:46:35;;;;;;;6.10;3.38;;;;;;;-142.75;78.55;75350.03;5048093;28;20027;-61
2023/06/25 08:49:02;;;;;;;5.72;3.35;;;;;;;-142.75;79.16;75334.28;5047881;28;20468;-61
2023/06/25 08:51:28;;;;;;;6.72;3.63;;;;;;;-142.75;76.15;75326.41;5047954;28;20028;-62
2023/06/25 08:53:55;;;;;;;6.35;3.28;;;;;;;-142.75;77.30;75296.88;5047604;28;20468;-61
2023/06/25 08:56:21;;;;;;;5.10;3.13;;;;;;;-142.75;78.94;75277.22;5048038;28;20025;-61
2023/06/25 08:58:46;;;;;;;8.05;3.05;;;;;;;-142.75;76.53;75261.47;5048122;28;20019;-61
2023/06/25 09:01:15;;;;;;;5.72;3.00;;;;;;;-142.75;75.36;75245.72;5047784;28;20020;-61
2023/06/25 09:03:41;;;;;;;5.35;3.00;;;;;;;-142.75;73.68;75249.66;5047696;28;20488;-62
2023/06/25 09:06:17;;;;;;;5.10;2.80;;;;;;;-142.75;75.28;75222.13;5047538;28;20103;-61
2023/06/25 09:08:43;;;;;;;3.70;2.45;;;;;;;-142.75;72.58;75237.84;5045018;28;20120;-62
2023/06/25 09:11:08;;;;;;;5.47;2.75;;;;;;;-142.75;69.75;75241.78;5052666;28;20020;-60
2023/06/25 09:13:34;;;;;;;5.45;2.63;;;;;;;-142.75;70.52;75233.91;5046562;28;20017;-62
2023/06/25 09:16:04;;;;;;;5.28;2.22;;;;;;;-142.75;71.70;75222.13;5046574;28;20388;-61
2023/06/25 09:18:30;;;;;;;5.18;3.17;;;;;;;-142.75;70.16;75216.22;5046514;28;20699;-62
2023/06/25 09:20:56;;;;;;;5.82;2.28;;;;;;;-142.75;72.75;75190.63;5046632;28;20025;-62
2023/06/25 09:23:23;;;;;;;4.63;2.53;;;;;;;-142.75;68.74;75172.91;5046221;28;20090;-61
2023/06/25 09:25:52;;;;;;;4.32;2.35;;;;;;;-142.75;68.95;75161.13;5046676;28;20021;-63
2023/06/25 09:28:18;;;;;;;3.60;2.30;;;;;;;-142.75;67.97;75149.31;5046763;28;20106;-62
2023/06/25 09:30:44;;;;;;;6.32;3.55;;;;;;;-142.75;67.33;75135.53;5045557;28;20055;-62
2023/06/25 09:33:11;;;;;;;5.20;2.50;;;;;;;-142.75;63.46;75141.44;5046471;28;20033;-61
2023/06/25 09:35:38;;;;;;;4.93;2.47;;;;;;;-142.75;63.85;75131.59;5046458;28;20024;-61
2023/06/25 09:38:03;;;;;;;4.95;2.30;;;;;;;-142.75;68.08;75111.91;5046558;28;20017;-61
2023/06/25 09:40:29;;;;;;;4.30;2.63;;;;;;;-142.75;63.85;75090.28;5046628;28;20035;-62
2023/06/25 09:42:56;;;;;;;3.60;2.00;;;;;;;-142.75;60.51;75107.97;5046744;28;20023;-60
2023/06/25 09:45:24;;;;;;;5.07;2.35;;;;;;;-142.75;65.80;75121.75;5046510;28;20059;-63
2023/06/25 09:47:51;;;;;;;4.28;2.22;;;;;;;-142.75;65.10;75113.88;5046307;28;20421;-58
2023/06/25 09:50:37;;;;;;;4.88;2.53;;;;;;;-142.75;59.50;75106.00;5046305;28;20029;-62
2023/06/25 09:53:06;;;;;;;3.70;2.30;;;;;;;-142.75;61.01;75086.34;5045988;28;20515;-62
2023/06/25 09:55:34;;;;;;;4.53;2.30;;;;;;;-142.75;64.05;75078.47;5043763;28;20429;-61
2023/06/25 09:58:01;;;;;;;3.75;2.33;;;;;;;-142.75;64.21;75078.47;5042307;28;20028;-61
2023/06/25 10:00:27;;;;;;;4.18;2.28;;;;;;;-142.75;61.48;75056.81;5062023;28;20036;-62
2023/06/25 10:02:53;;;;;;;5.40;2.45;;;;;;;-142.75;64.23;75039.13;5059296;28;20116;-62
2023/06/25 10:05:18;;;;;;;4.88;2.60;;;;;;;-142.75;62.42;75035.19;5046106;28;20585;-62
2023/06/25 10:07:44;;;;;;;4.60;2.72;;;;;;;-142.75;61.27;75027.31;5046331;28;20037;-63
2023/06/25 10:10:24;;;;;;;5.07;2.85;;;;;;;-142.75;63.02;75005.66;5045810;28;20021;-62
2023/06/25 10:12:50;;;;;;;5.97;2.42;;;;;;;-142.75;63.20;74997.78;5045809;28;20036;-60
2023/06/25 10:15:28;;;;;;;6.68;2.60;;;;;;;-142.75;66.48;74978.13;5042744;28;20641;-63
2023/06/25 10:17:54;;;;;;;4.85;2.47;;;;;;;-142.75;62.73;74985.97;5045212;28;20717;-61
2023/06/25 10:20:47;;;;;;;4.18;2.20;;;;;;;-142.75;61.44;74956.47;5044302;28;20099;-62
2023/06/25 10:23:13;;;;;;;6.18;3.20;;;;;;;-142.75;60.70;74974.19;5043738;28;20048;-61
2023/06/25 10:25:56;;;;;;;5.22;2.50;;;;;;;-142.75;62.23;74972.22;5051625;28;20025;-62
2023/06/25 10:28:29;;;;;;;4.65;2.60;;;;;;;-142.75;61.48;74972.22;5052407;28;20021;-62
2023/06/25 10:30:54;;;;;;;4.60;2.45;;;;;;;-142.75;66.98;74964.34;5045077;28;20028;-62
2023/06/25 10:33:20;;;;;;;5.30;2.50;;;;;;;-142.75;64.29;74972.22;5055575;28;20029;-62
2023/06/25 10:36:08;;;;;;;5.00;2.90;;;;;;;-142.75;61.53;74991.88;5059360;28;20495;-62
2023/06/25 10:38:33;;;;;;;4.55;2.63;;;;;;;-142.75;64.12;74999.75;5070493;28;20025;-62
2023/06/25 10:40:58;;;;;;;5.20;2.53;;;;;;;-142.75;63.15;74989.91;5070120;28;20021;-62
2023/06/25 10:43:24;;;;;;;5.05;2.50;;;;;;;-142.75;63.32;74968.28;5061336;28;20067;-62
2023/06/25 10:45:53;;;;;;;4.07;2.28;;;;;;;-142.75;64.40;74932.84;5049048;28;20104;-63
2023/06/25 10:48:19;;;;;;;4.75;2.45;;;;;;;-142.75;63.09;74926.94;5050081;28;20564;-64
2023/06/25 10:50:45;;;;;;;3.97;2.03;;;;;;;-142.75;68.64;74909.25;5050084;28;20094;-62
2023/06/25 10:53:17;;;;;;;3.75;1.95;;;;;;;-142.75;62.52;74901.38;5049863;28;20020;-63
2023/06/25 10:55:47;;;;;;;4.10;2.30;;;;;;;-142.75;59.97;74899.41;5049663;28;20029;-61
2023/06/25 10:58:21;;;;;;;5.75;2.60;;;;;;;-142.75;62.85;74913.19;5048024;28;20592;-64
2023/06/25 11:00:56;;;;;;;7.43;2.28;;;;;;;-142.75;57.33;74946.63;5046652;28;20029;-59